sensor_id;sensor_type;location;lat;lon;timestamp;P1;durP1;ratioP1;P2;durP2;ratioP2
61038;SDS011;46919;45.816;3.104;2023-05-19T00:01:14;8.43;;;2.30;;
61038;SDS011;46919;45.816;3.104;2023-05-19T00:03:53;8.20;;;2.17;;
61038;SDS011;46919;45.816;3.104;2023-05-19T00:06:26;6.80;;;2.08;;
61038;SDS011;46919;45.816;3.104;2023-05-19T00:08:57;4.57;;;2.05;;
61038;SDS011;46919;45.816;3.104;2023-05-19T00:11:24;5.35;;;1.90;;
61038;SDS011;46919;45.816;3.104;2023-05-19T00:13:51;6.82;;;2.20;;
61038;SDS011;46919;45.816;3.104;2023-05-19T00:16:18;7.88;;;2.53;;
61038;SDS011;46919;45.816;3.104;2023-05-19T00:18:44;7.75;;;2.08;;
61038;SDS011;46919;45.816;3.104;2023-05-19T00:21:11;7.80;;;2.28;;
61038;SDS011;46919;45.816;3.104;2023-05-19T00:23:36;5.97;;;2.13;;
61038;SDS011;46919;45.816;3.104;2023-05-19T00:26:02;5.30;;;2.45;;
61038;SDS011;46919;45.816;3.104;2023-05-19T00:28:27;4.80;;;2.10;;
61038;SDS011;46919;45.816;3.104;2023-05-19T00:30:53;7.10;;;2.17;;
61038;SDS011;46919;45.816;3.104;2023-05-19T00:33:18;5.38;;;2.17;;
61038;SDS011;46919;45.816;3.104;2023-05-19T00:35:44;6.35;;;2.20;;
61038;SDS011;46919;45.816;3.104;2023-05-19T00:38:09;6.07;;;2.00;;
61038;SDS011;46919;45.816;3.104;2023-05-19T00:40:35;5.28;;;1.98;;
61038;SDS011;46919;45.816;3.104;2023-05-19T00:43:00;7.25;;;1.88;;
61038;SDS011;46919;45.816;3.104;2023-05-19T00:45:26;10.95;;;2.20;;
61038;SDS011;46919;45.816;3.104;2023-05-19T00:47:52;3.78;;;1.92;;
61038;SDS011;46919;45.816;3.104;2023-05-19T00:50:18;7.63;;;2.08;;
61038;SDS011;46919;45.816;3.104;2023-05-19T00:52:43;6.13;;;1.98;;
61038;SDS011;46919;45.816;3.104;2023-05-19T00:55:09;11.38;;;2.20;;
61038;SDS011;46919;45.816;3.104;2023-05-19T00:57:35;9.85;;;2.45;;
61038;SDS011;46919;45.816;3.104;2023-05-19T01:00:02;3.78;;;1.73;;
61038;SDS011;46919;45.816;3.104;2023-05-19T01:02:29;6.80;;;2.03;;
61038;SDS011;46919;45.816;3.104;2023-05-19T01:04:56;5.75;;;1.98;;
61038;SDS011;46919;45.816;3.104;2023-05-19T01:07:22;6.53;;;2.40;;
61038;SDS011;46919;45.816;3.104;2023-05-19T01:09:48;4.30;;;2.17;;
61038;SDS011;46919;45.816;3.104;2023-05-19T01:12:14;6.50;;;2.60;;
61038;SDS011;46919;45.816;3.104;2023-05-19T01:14:40;6.03;;;2.05;;
61038;SDS011;46919;45.816;3.104;2023-05-19T01:17:08;4.50;;;2.30;;
61038;SDS011;46919;45.816;3.104;2023-05-19T01:32:07;7.65;;;2.15;;
61038;SDS011;46919;45.816;3.104;2023-05-19T01:34:35;4.70;;;1.90;;
61038;SDS011;46919;45.816;3.104;2023-05-19T01:37:08;6.30;;;2.30;;
61038;SDS011;46919;45.816;3.104;2023-05-19T01:39:34;5.47;;;2.47;;
61038;SDS011;46919;45.816;3.104;2023-05-19T01:41:59;9.55;;;2.53;;
61038;SDS011;46919;45.816;3.104;2023-05-19T01:44:26;6.03;;;2.00;;
61038;SDS011;46919;45.816;3.104;2023-05-19T01:46:52;5.45;;;2.40;;
61038;SDS011;46919;45.816;3.104;2023-05-19T01:49:18;3.95;;;2.05;;
61038;SDS011;46919;45.816;3.104;2023-05-19T01:51:44;5.18;;;2.15;;
61038;SDS011;46919;45.816;3.104;2023-05-19T01:54:09;10.40;;;2.60;;
61038;SDS011;46919;45.816;3.104;2023-05-19T02:02:35;5.45;;;1.85;;
61038;SDS011;46919;45.816;3.104;2023-05-19T02:05:08;9.18;;;2.22;;
61038;SDS011;46919;45.816;3.104;2023-05-19T02:07:56;5.35;;;1.98;;
61038;SDS011;46919;45.816;3.104;2023-05-19T02:10:35;5.82;;;2.30;;
61038;SDS011;46919;45.816;3.104;2023-05-19T02:13:04;8.18;;;2.10;;
61038;SDS011;46919;45.816;3.104;2023-05-19T02:15:33;9.15;;;2.47;;
61038;SDS011;46919;45.816;3.104;2023-05-19T02:18:04;4.28;;;1.92;;
61038;SDS011;46919;45.816;3.104;2023-05-19T02:20:33;5.07;;;2.40;;
61038;SDS011;46919;45.816;3.104;2023-05-19T02:22:58;6.90;;;2.28;;
61038;SDS011;46919;45.816;3.104;2023-05-19T02:25:24;10.65;;;2.42;;
61038;SDS011;46919;45.816;3.104;2023-05-19T02:27:50;5.88;;;2.20;;
61038;SDS011;46919;45.816;3.104;2023-05-19T02:30:16;5.85;;;2.20;;
61038;SDS011;46919;45.816;3.104;2023-05-19T02:32:41;4.07;;;2.00;;
61038;SDS011;46919;45.816;3.104;2023-05-19T02:35:10;7.50;;;2.30;;
61038;SDS011;46919;45.816;3.104;2023-05-19T02:37:36;6.78;;;2.33;;
61038;SDS011;46919;45.816;3.104;2023-05-19T02:40:02;4.90;;;2.20;;
61038;SDS011;46919;45.816;3.104;2023-05-19T02:42:28;6.88;;;2.25;;
61038;SDS011;46919;45.816;3.104;2023-05-19T02:44:53;5.65;;;2.20;;
61038;SDS011;46919;45.816;3.104;2023-05-19T02:47:19;5.97;;;2.08;;
61038;SDS011;46919;45.816;3.104;2023-05-19T02:49:44;8.00;;;2.50;;
61038;SDS011;46919;45.816;3.104;2023-05-19T02:52:10;10.65;;;2.53;;
61038;SDS011;46919;45.816;3.104;2023-05-19T02:54:36;6.78;;;2.10;;
61038;SDS011;46919;45.816;3.104;2023-05-19T02:57:01;4.30;;;2.20;;
61038;SDS011;46919;45.816;3.104;2023-05-19T02:59:27;4.38;;;2.20;;
61038;SDS011;46919;45.816;3.104;2023-05-19T03:01:57;5.72;;;2.17;;
61038;SDS011;46919;45.816;3.104;2023-05-19T03:04:24;8.52;;;2.30;;
61038;SDS011;46919;45.816;3.104;2023-05-19T03:06:49;4.35;;;2.10;;
61038;SDS011;46919;45.816;3.104;2023-05-19T03:09:14;6.65;;;2.40;;
61038;SDS011;46919;45.816;3.104;2023-05-19T03:11:40;7.70;;;2.38;;
61038;SDS011;46919;45.816;3.104;2023-05-19T03:14:06;5.75;;;2.58;;
61038;SDS011;46919;45.816;3.104;2023-05-19T03:16:33;5.18;;;2.33;;
61038;SDS011;46919;45.816;3.104;2023-05-19T03:18:59;7.63;;;2.35;;
61038;SDS011;46919;45.816;3.104;2023-05-19T03:21:24;6.40;;;2.25;;
61038;SDS011;46919;45.816;3.104;2023-05-19T03:23:50;9.07;;;2.47;;
61038;SDS011;46919;45.816;3.104;2023-05-19T03:26:15;7.22;;;2.47;;
61038;SDS011;46919;45.816;3.104;2023-05-19T03:28:41;7.43;;;2.75;;
61038;SDS011;46919;45.816;3.104;2023-05-19T03:31:06;5.30;;;2.13;;
61038;SDS011;46919;45.816;3.104;2023-05-19T03:33:31;7.13;;;2.42;;
61038;SDS011;46919;45.816;3.104;2023-05-19T03:35:57;6.10;;;2.47;;
61038;SDS011;46919;45.816;3.104;2023-05-19T03:38:23;5.10;;;2.33;;
61038;SDS011;46919;45.816;3.104;2023-05-19T03:40:48;6.28;;;2.75;;
61038;SDS011;46919;45.816;3.104;2023-05-19T03:43:14;4.85;;;2.20;;
61038;SDS011;46919;45.816;3.104;2023-05-19T03:45:40;5.60;;;2.33;;
61038;SDS011;46919;45.816;3.104;2023-05-19T03:48:06;7.25;;;2.75;;
61038;SDS011;46919;45.816;3.104;2023-05-19T03:50:31;8.05;;;2.78;;
61038;SDS011;46919;45.816;3.104;2023-05-19T03:52:58;7.65;;;2.50;;
61038;SDS011;46919;45.816;3.104;2023-05-19T03:55:23;5.82;;;2.63;;
61038;SDS011;46919;45.816;3.104;2023-05-19T03:57:50;5.43;;;2.50;;
61038;SDS011;46919;45.816;3.104;2023-05-19T04:00:16;4.72;;;2.22;;
61038;SDS011;46919;45.816;3.104;2023-05-19T04:02:42;5.18;;;2.45;;
61038;SDS011;46919;45.816;3.104;2023-05-19T04:05:08;6.95;;;2.42;;
61038;SDS011;46919;45.816;3.104;2023-05-19T04:07:34;10.48;;;2.83;;
61038;SDS011;46919;45.816;3.104;2023-05-19T04:09:59;4.20;;;2.60;;
61038;SDS011;46919;45.816;3.104;2023-05-19T04:12:26;5.88;;;2.35;;
61038;SDS011;46919;45.816;3.104;2023-05-19T04:14:51;6.60;;;2.63;;
61038;SDS011;46919;45.816;3.104;2023-05-19T04:17:16;5.03;;;2.80;;
61038;SDS011;46919;45.816;3.104;2023-05-19T04:19:42;7.15;;;2.60;;
61038;SDS011;46919;45.816;3.104;2023-05-19T04:22:07;7.40;;;3.00;;
61038;SDS011;46919;45.816;3.104;2023-05-19T04:24:33;5.35;;;2.50;;
61038;SDS011;46919;45.816;3.104;2023-05-19T04:26:58;6.57;;;2.75;;
61038;SDS011;46919;45.816;3.104;2023-05-19T04:29:28;6.35;;;2.95;;
61038;SDS011;46919;45.816;3.104;2023-05-19T04:31:54;5.15;;;2.80;;
61038;SDS011;46919;45.816;3.104;2023-05-19T04:34:21;6.05;;;2.53;;
61038;SDS011;46919;45.816;3.104;2023-05-19T04:36:46;6.22;;;3.40;;
61038;SDS011;46919;45.816;3.104;2023-05-19T04:39:13;5.18;;;2.83;;
61038;SDS011;46919;45.816;3.104;2023-05-19T04:41:38;8.95;;;3.20;;
61038;SDS011;46919;45.816;3.104;2023-05-19T04:44:08;5.85;;;2.90;;
61038;SDS011;46919;45.816;3.104;2023-05-19T04:46:34;10.02;;;3.30;;
61038;SDS011;46919;45.816;3.104;2023-05-19T04:49:00;7.25;;;2.85;;
61038;SDS011;46919;45.816;3.104;2023-05-19T04:51:26;5.43;;;3.03;;
61038;SDS011;46919;45.816;3.104;2023-05-19T04:53:55;5.38;;;2.63;;
61038;SDS011;46919;45.816;3.104;2023-05-19T04:56:21;7.75;;;3.10;;
61038;SDS011;46919;45.816;3.104;2023-05-19T04:58:47;7.28;;;3.30;;
61038;SDS011;46919;45.816;3.104;2023-05-19T05:01:13;7.40;;;3.50;;
61038;SDS011;46919;45.816;3.104;2023-05-19T05:03:40;6.97;;;2.85;;
61038;SDS011;46919;45.816;3.104;2023-05-19T05:06:06;7.70;;;3.08;;
61038;SDS011;46919;45.816;3.104;2023-05-19T05:08:31;10.07;;;3.15;;
61038;SDS011;46919;45.816;3.104;2023-05-19T05:10:57;6.82;;;3.17;;
61038;SDS011;46919;45.816;3.104;2023-05-19T05:13:23;11.90;;;3.67;;
61038;SDS011;46919;45.816;3.104;2023-05-19T05:15:49;4.65;;;2.90;;
61038;SDS011;46919;45.816;3.104;2023-05-19T05:18:16;7.72;;;2.97;;
61038;SDS011;46919;45.816;3.104;2023-05-19T05:20:42;10.25;;;3.28;;
61038;SDS011;46919;45.816;3.104;2023-05-19T05:23:09;6.25;;;2.83;;
61038;SDS011;46919;45.816;3.104;2023-05-19T05:25:41;5.72;;;3.08;;
61038;SDS011;46919;45.816;3.104;2023-05-19T05:28:07;6.65;;;2.78;;
61038;SDS011;46919;45.816;3.104;2023-05-19T05:30:33;7.85;;;3.65;;
61038;SDS011;46919;45.816;3.104;2023-05-19T05:32:59;7.00;;;3.22;;
61038;SDS011;46919;45.816;3.104;2023-05-19T05:35:26;9.52;;;3.20;;
61038;SDS011;46919;45.816;3.104;2023-05-19T05:37:51;5.65;;;3.38;;
61038;SDS011;46919;45.816;3.104;2023-05-19T05:40:17;7.75;;;3.00;;
61038;SDS011;46919;45.816;3.104;2023-05-19T05:42:43;7.00;;;3.40;;
61038;SDS011;46919;45.816;3.104;2023-05-19T05:45:08;7.60;;;3.30;;
61038;SDS011;46919;45.816;3.104;2023-05-19T05:47:34;7.45;;;3.10;;
61038;SDS011;46919;45.816;3.104;2023-05-19T05:50:07;6.95;;;3.13;;
61038;SDS011;46919;45.816;3.104;2023-05-19T05:52:33;9.07;;;3.53;;
61038;SDS011;46919;45.816;3.104;2023-05-19T05:55:01;8.10;;;3.42;;
61038;SDS011;46919;45.816;3.104;2023-05-19T05:57:27;7.18;;;3.30;;
61038;SDS011;46919;45.816;3.104;2023-05-19T05:59:54;5.53;;;3.40;;
61038;SDS011;46919;45.816;3.104;2023-05-19T06:02:20;5.88;;;3.42;;
61038;SDS011;46919;45.816;3.104;2023-05-19T06:04:46;9.45;;;3.30;;
61038;SDS011;46919;45.816;3.104;2023-05-19T06:07:11;6.78;;;3.25;;
61038;SDS011;46919;45.816;3.104;2023-05-19T06:09:36;9.40;;;3.60;;
61038;SDS011;46919;45.816;3.104;2023-05-19T06:12:02;7.25;;;3.47;;
61038;SDS011;46919;45.816;3.104;2023-05-19T06:14:28;8.85;;;3.13;;
61038;SDS011;46919;45.816;3.104;2023-05-19T06:16:53;9.10;;;3.45;;
61038;SDS011;46919;45.816;3.104;2023-05-19T06:19:19;7.28;;;3.55;;
61038;SDS011;46919;45.816;3.104;2023-05-19T06:21:45;5.35;;;3.10;;
61038;SDS011;46919;45.816;3.104;2023-05-19T06:24:10;11.98;;;3.58;;
61038;SDS011;46919;45.816;3.104;2023-05-19T06:26:36;6.20;;;3.03;;
61038;SDS011;46919;45.816;3.104;2023-05-19T06:29:01;8.90;;;3.38;;
61038;SDS011;46919;45.816;3.104;2023-05-19T06:31:27;10.88;;;3.80;;
61038;SDS011;46919;45.816;3.104;2023-05-19T06:33:53;16.75;;;4.43;;
61038;SDS011;46919;45.816;3.104;2023-05-19T06:36:18;6.95;;;3.75;;
61038;SDS011;46919;45.816;3.104;2023-05-19T06:38:44;10.68;;;3.50;;
61038;SDS011;46919;45.816;3.104;2023-05-19T06:41:09;9.77;;;3.30;;
61038;SDS011;46919;45.816;3.104;2023-05-19T06:43:34;10.07;;;3.25;;
61038;SDS011;46919;45.816;3.104;2023-05-19T06:46:00;7.13;;;3.53;;
61038;SDS011;46919;45.816;3.104;2023-05-19T06:48:25;7.88;;;3.38;;
61038;SDS011;46919;45.816;3.104;2023-05-19T06:50:51;10.90;;;4.70;;
61038;SDS011;46919;45.816;3.104;2023-05-19T06:53:17;10.45;;;3.60;;
61038;SDS011;46919;45.816;3.104;2023-05-19T06:55:43;13.10;;;3.80;;
61038;SDS011;46919;45.816;3.104;2023-05-19T06:58:08;7.57;;;3.17;;
61038;SDS011;46919;45.816;3.104;2023-05-19T07:00:34;6.75;;;3.13;;
61038;SDS011;46919;45.816;3.104;2023-05-19T07:02:59;9.48;;;4.00;;
61038;SDS011;46919;45.816;3.104;2023-05-19T07:05:25;8.40;;;3.38;;
61038;SDS011;46919;45.816;3.104;2023-05-19T07:07:51;11.25;;;3.65;;
61038;SDS011;46919;45.816;3.104;2023-05-19T07:10:16;5.47;;;3.22;;
61038;SDS011;46919;45.816;3.104;2023-05-19T07:12:41;6.68;;;3.38;;
61038;SDS011;46919;45.816;3.104;2023-05-19T07:15:07;6.78;;;3.35;;
61038;SDS011;46919;45.816;3.104;2023-05-19T07:17:33;8.82;;;3.53;;
61038;SDS011;46919;45.816;3.104;2023-05-19T07:19:58;8.77;;;3.47;;
61038;SDS011;46919;45.816;3.104;2023-05-19T07:22:24;10.63;;;3.50;;
61038;SDS011;46919;45.816;3.104;2023-05-19T07:24:50;6.57;;;3.55;;
61038;SDS011;46919;45.816;3.104;2023-05-19T07:27:15;6.57;;;3.38;;
61038;SDS011;46919;45.816;3.104;2023-05-19T07:29:40;7.75;;;3.35;;
61038;SDS011;46919;45.816;3.104;2023-05-19T07:32:06;6.13;;;3.25;;
61038;SDS011;46919;45.816;3.104;2023-05-19T07:34:31;8.45;;;3.38;;
61038;SDS011;46919;45.816;3.104;2023-05-19T07:36:57;10.77;;;2.95;;
61038;SDS011;46919;45.816;3.104;2023-05-19T07:39:22;6.57;;;3.22;;
61038;SDS011;46919;45.816;3.104;2023-05-19T07:41:50;9.10;;;3.40;;
61038;SDS011;46919;45.816;3.104;2023-05-19T07:44:19;6.20;;;3.00;;
61038;SDS011;46919;45.816;3.104;2023-05-19T07:46:45;9.27;;;3.25;;
61038;SDS011;46919;45.816;3.104;2023-05-19T07:49:10;9.18;;;3.35;;
61038;SDS011;46919;45.816;3.104;2023-05-19T07:51:36;9.18;;;3.55;;
61038;SDS011;46919;45.816;3.104;2023-05-19T07:54:01;7.97;;;3.28;;
61038;SDS011;46919;45.816;3.104;2023-05-19T07:56:27;7.97;;;3.70;;
61038;SDS011;46919;45.816;3.104;2023-05-19T07:58:52;12.88;;;4.05;;
61038;SDS011;46919;45.816;3.104;2023-05-19T08:01:17;10.10;;;3.65;;
61038;SDS011;46919;45.816;3.104;2023-05-19T08:03:43;8.07;;;3.05;;
61038;SDS011;46919;45.816;3.104;2023-05-19T08:06:08;7.70;;;3.15;;
61038;SDS011;46919;45.816;3.104;2023-05-19T08:08:33;7.60;;;3.28;;
61038;SDS011;46919;45.816;3.104;2023-05-19T08:11:02;8.02;;;3.42;;
61038;SDS011;46919;45.816;3.104;2023-05-19T08:13:28;10.70;;;3.20;;
61038;SDS011;46919;45.816;3.104;2023-05-19T08:15:54;7.60;;;3.15;;
61038;SDS011;46919;45.816;3.104;2023-05-19T08:18:23;6.03;;;2.88;;
61038;SDS011;46919;45.816;3.104;2023-05-19T08:20:51;7.93;;;2.92;;
61038;SDS011;46919;45.816;3.104;2023-05-19T08:23:17;10.02;;;3.28;;
61038;SDS011;46919;45.816;3.104;2023-05-19T08:25:42;7.25;;;3.00;;
61038;SDS011;46919;45.816;3.104;2023-05-19T08:28:08;11.48;;;3.05;;
61038;SDS011;46919;45.816;3.104;2023-05-19T08:30:34;8.85;;;3.50;;
61038;SDS011;46919;45.816;3.104;2023-05-19T08:32:59;8.38;;;2.70;;
61038;SDS011;46919;45.816;3.104;2023-05-19T08:35:25;9.15;;;3.08;;
61038;SDS011;46919;45.816;3.104;2023-05-19T08:37:50;6.47;;;2.67;;
61038;SDS011;46919;45.816;3.104;2023-05-19T08:40:16;8.10;;;3.10;;
61038;SDS011;46919;45.816;3.104;2023-05-19T08:42:42;9.73;;;3.50;;
61038;SDS011;46919;45.816;3.104;2023-05-19T08:45:09;6.13;;;3.03;;
61038;SDS011;46919;45.816;3.104;2023-05-19T08:47:35;8.48;;;3.17;;
61038;SDS011;46919;45.816;3.104;2023-05-19T08:50:04;7.28;;;3.45;;
61038;SDS011;46919;45.816;3.104;2023-05-19T08:55:08;8.93;;;2.90;;
61038;SDS011;46919;45.816;3.104;2023-05-19T08:57:39;10.90;;;3.72;;
61038;SDS011;46919;45.816;3.104;2023-05-19T09:00:05;9.07;;;3.42;;
61038;SDS011;46919;45.816;3.104;2023-05-19T09:02:33;10.20;;;2.90;;
61038;SDS011;46919;45.816;3.104;2023-05-19T09:05:02;9.75;;;3.40;;
61038;SDS011;46919;45.816;3.104;2023-05-19T09:07:29;9.32;;;3.50;;
61038;SDS011;46919;45.816;3.104;2023-05-19T09:09:58;6.93;;;3.25;;
61038;SDS011;46919;45.816;3.104;2023-05-19T09:12:25;6.65;;;2.83;;
61038;SDS011;46919;45.816;3.104;2023-05-19T09:14:50;5.90;;;2.60;;
61038;SDS011;46919;45.816;3.104;2023-05-19T09:17:16;7.82;;;2.67;;
61038;SDS011;46919;45.816;3.104;2023-05-19T09:19:45;5.82;;;2.90;;
61038;SDS011;46919;45.816;3.104;2023-05-19T09:22:14;4.68;;;2.65;;
61038;SDS011;46919;45.816;3.104;2023-05-19T09:24:43;8.70;;;2.70;;
61038;SDS011;46919;45.816;3.104;2023-05-19T09:27:08;6.63;;;2.53;;
61038;SDS011;46919;45.816;3.104;2023-05-19T09:29:34;7.57;;;2.58;;
61038;SDS011;46919;45.816;3.104;2023-05-19T09:31:59;8.80;;;3.10;;
61038;SDS011;46919;45.816;3.104;2023-05-19T09:34:28;7.28;;;2.92;;
61038;SDS011;46919;45.816;3.104;2023-05-19T09:36:53;8.30;;;2.85;;
61038;SDS011;46919;45.816;3.104;2023-05-19T09:39:19;6.15;;;2.42;;
61038;SDS011;46919;45.816;3.104;2023-05-19T09:41:46;4.47;;;2.17;;
61038;SDS011;46919;45.816;3.104;2023-05-19T09:46:50;6.10;;;2.70;;
61038;SDS011;46919;45.816;3.104;2023-05-19T09:51:43;7.88;;;2.80;;
61038;SDS011;46919;45.816;3.104;2023-05-19T09:54:13;6.88;;;2.55;;
61038;SDS011;46919;45.816;3.104;2023-05-19T09:56:39;6.78;;;2.33;;
61038;SDS011;46919;45.816;3.104;2023-05-19T09:59:05;8.27;;;3.00;;
61038;SDS011;46919;45.816;3.104;2023-05-19T10:01:31;4.20;;;2.38;;
61038;SDS011;46919;45.816;3.104;2023-05-19T10:04:01;6.72;;;2.42;;
61038;SDS011;46919;45.816;3.104;2023-05-19T10:06:28;3.45;;;2.10;;
61038;SDS011;46919;45.816;3.104;2023-05-19T10:08:54;5.53;;;2.30;;
61038;SDS011;46919;45.816;3.104;2023-05-19T10:11:21;7.63;;;2.65;;
61038;SDS011;46919;45.816;3.104;2023-05-19T10:13:49;5.05;;;2.15;;
61038;SDS011;46919;45.816;3.104;2023-05-19T10:16:15;9.20;;;2.92;;
61038;SDS011;46919;45.816;3.104;2023-05-19T10:18:42;5.53;;;2.25;;
61038;SDS011;46919;45.816;3.104;2023-05-19T10:21:07;5.28;;;2.53;;
61038;SDS011;46919;45.816;3.104;2023-05-19T10:23:33;6.93;;;2.30;;
61038;SDS011;46919;45.816;3.104;2023-05-19T10:25:59;6.57;;;2.35;;
61038;SDS011;46919;45.816;3.104;2023-05-19T10:28:38;7.95;;;3.08;;
61038;SDS011;46919;45.816;3.104;2023-05-19T10:31:08;7.43;;;2.60;;
61038;SDS011;46919;45.816;3.104;2023-05-19T10:39:32;5.07;;;2.08;;
61038;SDS011;46919;45.816;3.104;2023-05-19T10:42:17;5.22;;;2.33;;
61038;SDS011;46919;45.816;3.104;2023-05-19T10:47:41;7.13;;;2.65;;
61038;SDS011;46919;45.816;3.104;2023-05-19T10:50:08;7.60;;;2.63;;
61038;SDS011;46919;45.816;3.104;2023-05-19T10:52:37;7.78;;;3.63;;
61038;SDS011;46919;45.816;3.104;2023-05-19T10:55:07;6.63;;;2.72;;
61038;SDS011;46919;45.816;3.104;2023-05-19T10:57:34;18.08;;;10.13;;
61038;SDS011;46919;45.816;3.104;2023-05-19T11:00:03;10.75;;;5.55;;
61038;SDS011;46919;45.816;3.104;2023-05-19T11:02:49;7.95;;;5.13;;
61038;SDS011;46919;45.816;3.104;2023-05-19T11:05:24;5.68;;;2.53;;
61038;SDS011;46919;45.816;3.104;2023-05-19T11:10:27;14.80;;;5.28;;
61038;SDS011;46919;45.816;3.104;2023-05-19T11:12:53;8.68;;;4.50;;
61038;SDS011;46919;45.816;3.104;2023-05-19T11:15:22;8.30;;;3.70;;
61038;SDS011;46919;45.816;3.104;2023-05-19T11:17:50;5.57;;;2.10;;
61038;SDS011;46919;45.816;3.104;2023-05-19T11:20:23;6.07;;;3.00;;
61038;SDS011;46919;45.816;3.104;2023-05-19T11:23:35;6.05;;;2.42;;
61038;SDS011;46919;45.816;3.104;2023-05-19T11:25:46;4.50;;;2.17;;
61038;SDS011;46919;45.816;3.104;2023-05-19T11:28:16;7.38;;;2.17;;
61038;SDS011;46919;45.816;3.104;2023-05-19T11:30:49;7.75;;;2.10;;
61038;SDS011;46919;45.816;3.104;2023-05-19T11:33:17;7.32;;;2.13;;
61038;SDS011;46919;45.816;3.104;2023-05-19T11:35:47;7.43;;;2.15;;
61038;SDS011;46919;45.816;3.104;2023-05-19T11:38:18;5.65;;;2.20;;
61038;SDS011;46919;45.816;3.104;2023-05-19T11:40:44;6.45;;;2.10;;
61038;SDS011;46919;45.816;3.104;2023-05-19T11:43:09;7.28;;;2.33;;
61038;SDS011;46919;45.816;3.104;2023-05-19T11:45:35;4.13;;;2.03;;
61038;SDS011;46919;45.816;3.104;2023-05-19T11:48:00;5.05;;;2.28;;
61038;SDS011;46919;45.816;3.104;2023-05-19T11:50:32;4.90;;;2.15;;
61038;SDS011;46919;45.816;3.104;2023-05-19T11:52:59;8.10;;;2.40;;
61038;SDS011;46919;45.816;3.104;2023-05-19T11:55:25;7.18;;;2.35;;
61038;SDS011;46919;45.816;3.104;2023-05-19T11:58:00;6.65;;;2.28;;
61038;SDS011;46919;45.816;3.104;2023-05-19T12:00:28;6.90;;;2.20;;
61038;SDS011;46919;45.816;3.104;2023-05-19T12:02:55;6.55;;;2.35;;
61038;SDS011;46919;45.816;3.104;2023-05-19T12:05:25;4.95;;;2.40;;
61038;SDS011;46919;45.816;3.104;2023-05-19T12:07:51;7.35;;;2.60;;
61038;SDS011;46919;45.816;3.104;2023-05-19T12:10:21;5.50;;;2.78;;
61038;SDS011;46919;45.816;3.104;2023-05-19T12:12:54;8.80;;;3.72;;
61038;SDS011;46919;45.816;3.104;2023-05-19T12:15:21;6.95;;;3.00;;
61038;SDS011;46919;45.816;3.104;2023-05-19T12:17:48;5.80;;;2.38;;
61038;SDS011;46919;45.816;3.104;2023-05-19T12:20:24;12.85;;;3.97;;
61038;SDS011;46919;45.816;3.104;2023-05-19T12:22:50;21.02;;;8.55;;
61038;SDS011;46919;45.816;3.104;2023-05-19T12:25:16;31.48;;;13.40;;
61038;SDS011;46919;45.816;3.104;2023-05-19T12:27:42;43.10;;;20.92;;
61038;SDS011;46919;45.816;3.104;2023-05-19T12:30:09;23.13;;;9.77;;
61038;SDS011;46919;45.816;3.104;2023-05-19T12:32:35;12.00;;;3.45;;
61038;SDS011;46919;45.816;3.104;2023-05-19T12:35:01;6.70;;;2.85;;
61038;SDS011;46919;45.816;3.104;2023-05-19T12:37:29;12.35;;;4.43;;
61038;SDS011;46919;45.816;3.104;2023-05-19T12:39:55;11.80;;;4.25;;
61038;SDS011;46919;45.816;3.104;2023-05-19T12:42:21;8.65;;;3.10;;
61038;SDS011;46919;45.816;3.104;2023-05-19T12:44:47;7.05;;;3.10;;
61038;SDS011;46919;45.816;3.104;2023-05-19T12:47:16;8.95;;;3.30;;
61038;SDS011;46919;45.816;3.104;2023-05-19T12:52:45;6.65;;;3.03;;
61038;SDS011;46919;45.816;3.104;2023-05-19T12:55:11;6.95;;;3.00;;
61038;SDS011;46919;45.816;3.104;2023-05-19T12:57:39;10.13;;;3.20;;
61038;SDS011;46919;45.816;3.104;2023-05-19T13:00:19;8.30;;;2.95;;
61038;SDS011;46919;45.816;3.104;2023-05-19T13:02:56;7.25;;;2.67;;
61038;SDS011;46919;45.816;3.104;2023-05-19T13:05:25;6.25;;;2.38;;
61038;SDS011;46919;45.816;3.104;2023-05-19T13:07:52;7.95;;;2.58;;
61038;SDS011;46919;45.816;3.104;2023-05-19T13:10:22;4.95;;;2.20;;
61038;SDS011;46919;45.816;3.104;2023-05-19T13:12:49;6.82;;;2.22;;
61038;SDS011;46919;45.816;3.104;2023-05-19T13:15:15;7.82;;;2.53;;
61038;SDS011;46919;45.816;3.104;2023-05-19T13:17:41;7.78;;;2.38;;
61038;SDS011;46919;45.816;3.104;2023-05-19T13:20:06;11.15;;;2.53;;
61038;SDS011;46919;45.816;3.104;2023-05-19T13:22:32;6.53;;;2.33;;
61038;SDS011;46919;45.816;3.104;2023-05-19T13:24:58;5.65;;;2.25;;
61038;SDS011;46919;45.816;3.104;2023-05-19T13:27:24;5.78;;;2.20;;
61038;SDS011;46919;45.816;3.104;2023-05-19T13:29:49;6.15;;;2.20;;
61038;SDS011;46919;45.816;3.104;2023-05-19T13:32:15;4.75;;;2.00;;
61038;SDS011;46919;45.816;3.104;2023-05-19T13:34:40;7.30;;;2.22;;
61038;SDS011;46919;45.816;3.104;2023-05-19T13:37:06;3.95;;;1.58;;
61038;SDS011;46919;45.816;3.104;2023-05-19T13:39:33;6.15;;;2.00;;
61038;SDS011;46919;45.816;3.104;2023-05-19T13:41:59;5.30;;;2.08;;
61038;SDS011;46919;45.816;3.104;2023-05-19T13:44:25;6.40;;;2.05;;
61038;SDS011;46919;45.816;3.104;2023-05-19T13:46:50;4.38;;;1.73;;
61038;SDS011;46919;45.816;3.104;2023-05-19T13:49:16;4.32;;;1.92;;
61038;SDS011;46919;45.816;3.104;2023-05-19T13:51:41;8.13;;;2.40;;
61038;SDS011;46919;45.816;3.104;2023-05-19T13:54:07;4.95;;;2.00;;
61038;SDS011;46919;45.816;3.104;2023-05-19T13:56:33;7.15;;;2.33;;
61038;SDS011;46919;45.816;3.104;2023-05-19T13:58:59;5.15;;;2.10;;
61038;SDS011;46919;45.816;3.104;2023-05-19T14:01:24;5.50;;;2.20;;
61038;SDS011;46919;45.816;3.104;2023-05-19T14:03:50;4.72;;;2.03;;
61038;SDS011;46919;45.816;3.104;2023-05-19T14:06:16;8.95;;;2.17;;
61038;SDS011;46919;45.816;3.104;2023-05-19T14:08:41;6.97;;;2.00;;
61038;SDS011;46919;45.816;3.104;2023-05-19T14:11:06;6.05;;;2.10;;
61038;SDS011;46919;45.816;3.104;2023-05-19T14:13:32;4.78;;;1.60;;
61038;SDS011;46919;45.816;3.104;2023-05-19T14:15:58;5.50;;;2.20;;
61038;SDS011;46919;45.816;3.104;2023-05-19T14:18:23;5.20;;;2.40;;
61038;SDS011;46919;45.816;3.104;2023-05-19T14:20:49;6.05;;;2.03;;
61038;SDS011;46919;45.816;3.104;2023-05-19T14:23:14;5.15;;;2.05;;
61038;SDS011;46919;45.816;3.104;2023-05-19T14:25:41;3.33;;;1.67;;
61038;SDS011;46919;45.816;3.104;2023-05-19T14:28:06;5.72;;;2.22;;
61038;SDS011;46919;45.816;3.104;2023-05-19T14:30:32;6.13;;;2.60;;
61038;SDS011;46919;45.816;3.104;2023-05-19T14:32:57;5.28;;;1.95;;
61038;SDS011;46919;45.816;3.104;2023-05-19T14:35:23;5.05;;;2.10;;
61038;SDS011;46919;45.816;3.104;2023-05-19T14:37:49;6.70;;;1.80;;
61038;SDS011;46919;45.816;3.104;2023-05-19T14:40:15;5.15;;;1.77;;
61038;SDS011;46919;45.816;3.104;2023-05-19T14:42:40;4.13;;;1.80;;
61038;SDS011;46919;45.816;3.104;2023-05-19T14:45:06;6.30;;;2.15;;
61038;SDS011;46919;45.816;3.104;2023-05-19T14:47:31;5.25;;;2.38;;
61038;SDS011;46919;45.816;3.104;2023-05-19T14:49:57;7.82;;;2.63;;
61038;SDS011;46919;45.816;3.104;2023-05-19T14:52:25;8.18;;;2.53;;
61038;SDS011;46919;45.816;3.104;2023-05-19T14:54:51;9.05;;;2.38;;
61038;SDS011;46919;45.816;3.104;2023-05-19T14:57:16;5.45;;;2.45;;
61038;SDS011;46919;45.816;3.104;2023-05-19T14:59:42;30.15;;;4.45;;
61038;SDS011;46919;45.816;3.104;2023-05-19T15:02:08;27.65;;;2.80;;
61038;SDS011;46919;45.816;3.104;2023-05-19T15:04:35;5.82;;;2.25;;
61038;SDS011;46919;45.816;3.104;2023-05-19T15:07:01;7.40;;;2.00;;
61038;SDS011;46919;45.816;3.104;2023-05-19T15:09:26;5.88;;;2.30;;
61038;SDS011;46919;45.816;3.104;2023-05-19T15:11:51;6.93;;;2.35;;
61038;SDS011;46919;45.816;3.104;2023-05-19T15:14:17;3.38;;;1.90;;
61038;SDS011;46919;45.816;3.104;2023-05-19T15:16:42;5.47;;;2.20;;
61038;SDS011;46919;45.816;3.104;2023-05-19T15:19:08;4.95;;;2.03;;
61038;SDS011;46919;45.816;3.104;2023-05-19T15:21:33;4.97;;;2.00;;
61038;SDS011;46919;45.816;3.104;2023-05-19T15:23:58;4.68;;;1.63;;